Time;durP1;ratioP1;P1;durP2;ratioP2;P2;SDS_P1;SDS_P2;PMS_P1;PMS_P2;Temp;Humidity;BMP_temperature;BMP_pressure;BME280_temperature;BME280_humidity;BME280_pressure;Samples;Min_cycle;Max_cycle;Signal;HPM_P1;HPM_P2
2022/04/01 00:01:01;;;;;;;10.95;1.70;;;;;;;1.32;77.52;100106.59;5080981;28;20032;-75
2022/04/01 00:03:26;;;;;;;5.80;1.60;;;;;;;1.38;77.09;100099.31;5101150;28;20645;-75
2022/04/01 00:05:52;;;;;;;10.52;1.73;;;;;;;1.36;76.43;100104.19;5097306;28;20024;-74
2022/04/01 00:08:17;;;;;;;4.93;1.45;;;;;;;1.34;77.15;100104.44;5097012;28;20036;-75
2022/04/01 00:10:43;;;;;;;7.40;1.60;;;;;;;1.39;76.40;100105.59;5096935;28;20035;-75
2022/04/01 00:13:08;;;;;;;6.38;1.48;;;;;;;1.37;76.71;100108.59;5078968;28;20104;-74
2022/04/01 00:15:34;;;;;;;8.40;1.60;;;;;;;1.31;77.32;100109.59;5090493;28;20028;-74
2022/04/01 00:18:00;;;;;;;6.28;1.42;;;;;;;1.27;77.24;100108.38;5089819;28;20369;-74
2022/04/01 00:20:25;;;;;;;7.82;2.20;;;;;;;1.31;77.42;100113.16;5096972;28;20365;-74
2022/04/01 00:22:51;;;;;;;10.60;2.38;;;;;;;1.22;77.27;100105.56;5078907;28;20028;-74
2022/04/01 00:25:16;;;;;;;8.52;2.03;;;;;;;1.20;77.92;100104.94;5061850;28;20703;-74
2022/04/01 00:27:42;;;;;;;7.68;1.80;;;;;;;1.21;78.17;100115.66;5081512;28;20129;-74
2022/04/01 00:30:08;;;;;;;8.27;1.63;;;;;;;1.19;77.00;100116.97;5067807;28;20480;-74
2022/04/01 00:32:33;;;;;;;12.27;1.88;;;;;;;1.18;76.94;100113.41;5077022;28;20115;-75
2022/04/01 00:34:59;;;;;;;6.15;1.40;;;;;;;1.18;77.29;100120.78;5061911;28;20020;-75
2022/04/01 00:37:25;;;;;;;8.35;1.92;;;;;;;1.15;77.21;100122.09;5078587;28;20024;-74
2022/04/01 00:39:51;;;;;;;11.10;1.60;;;;;;;1.13;77.18;100126.16;5078469;28;20028;-75
2022/04/01 00:42:16;;;;;;;5.15;1.80;;;;;;;1.16;76.74;100114.72;5109494;28;20030;-74
2022/04/01 00:44:42;;;;;;;7.78;2.20;;;;;;;1.11;76.54;100120.91;5078726;28;20020;-75
2022/04/01 00:47:11;;;;;;;6.30;1.80;;;;;;;1.06;76.43;100129.84;5090289;28;20614;-75
2022/04/01 00:49:38;;;;;;;4.30;2.05;;;;;;;1.07;76.56;100125.22;5081946;28;20031;-75
2022/04/01 00:52:06;;;;;;;5.65;1.80;;;;;;;1.08;76.23;100116.75;5062362;28;20059;-76
2022/04/01 00:54:31;;;;;;;6.45;1.95;;;;;;;1.06;75.47;100129.03;5061114;28;20492;-75
2022/04/01 00:56:57;;;;;;;5.93;1.58;;;;;;;1.05;76.14;100128.19;5090031;28;20051;-75
2022/04/01 00:59:24;;;;;;;6.90;1.77;;;;;;;1.05;76.67;100128.19;5067110;28;20084;-75
2022/04/01 01:01:49;;;;;;;7.25;1.90;;;;;;;1.05;75.70;100132.81;5066276;28;20029;-75
2022/04/01 01:04:18;;;;;;;5.90;1.63;;;;;;;1.04;76.21;100140.19;5075970;28;20025;-75
2022/04/01 01:06:44;;;;;;;4.15;1.77;;;;;;;0.96;76.04;100135.09;5076092;28;20063;-74
2022/04/01 01:09:10;;;;;;;3.55;1.55;;;;;;;0.99;74.27;100134.63;5074487;28;20032;-74
2022/04/01 01:11:36;;;;;;;4.70;1.83;;;;;;;0.92;74.85;100144.00;5076033;28;20033;-74
2022/04/01 01:14:06;;;;;;;4.50;1.40;;;;;;;0.92;75.50;100136.66;5075921;28;20064;-74
2022/04/01 01:16:32;;;;;;;4.85;1.42;;;;;;;0.92;75.16;100138.53;5062382;28;20033;-74
2022/04/01 01:19:03;;;;;;;8.30;1.90;;;;;;;0.90;74.69;100141.53;5076174;28;20090;-74
2022/04/01 01:21:30;;;;;;;7.68;1.40;;;;;;;0.96;75.00;100140.56;5078892;28;20036;-74
2022/04/01 01:23:57;;;;;;;3.75;1.45;;;;;;;0.89;74.84;100139.84;5083501;28;20438;-74
2022/04/01 01:26:23;;;;;;;5.20;1.27;;;;;;;0.93;74.09;100146.53;5078725;28;20040;-74
2022/04/01 01:28:48;;;;;;;6.63;1.58;;;;;;;0.93;74.02;100130.13;5075852;28;20433;-74
2022/04/01 01:31:14;;;;;;;5.10;1.55;;;;;;;0.90;74.64;100127.84;5071334;28;20032;-74
2022/04/01 01:33:40;;;;;;;5.45;1.60;;;;;;;0.88;74.61;100122.63;5071239;28;20443;-74
2022/04/01 01:36:06;;;;;;;5.53;1.55;;;;;;;0.89;74.32;100134.38;5075776;28;20036;-74
2022/04/01 01:38:32;;;;;;;5.43;1.42;;;;;;;0.95;74.38;100125.25;5075772;28;20385;-74
2022/04/01 01:40:58;;;;;;;3.45;1.35;;;;;;;0.86;74.07;100134.88;5084075;28;20508;-74
2022/04/01 01:43:24;;;;;;;6.03;1.65;;;;;;;0.90;74.09;100138.78;5075812;28;20033;-74
2022/04/01 01:45:49;;;;;;;6.35;1.77;;;;;;;0.88;74.07;100121.78;5074262;28;20048;-74
2022/04/01 01:48:17;;;;;;;7.63;1.65;;;;;;;0.84;74.64;100132.38;5068360;28;20032;-74
2022/04/01 01:56:10;;;;;;;4.75;1.17;;;;;;;0.89;74.27;100123.44;5079352;28;20033;-74
2022/04/01 01:58:36;;;;;;;3.30;1.00;;;;;;;0.87;74.64;100117.41;5079314;28;20039;-74
2022/04/01 02:01:01;;;;;;;7.78;1.65;;;;;;;0.84;74.98;100128.81;5079259;28;20032;-74
2022/04/01 02:03:27;;;;;;;6.88;1.55;;;;;;;0.81;74.87;100132.88;5077898;28;20037;-74
2022/04/01 02:05:52;;;;;;;4.90;1.20;;;;;;;0.84;75.28;100131.56;5079423;28;20035;-74
2022/04/01 02:08:18;;;;;;;8.25;1.40;;;;;;;0.84;74.67;100129.66;5077872;28;20036;-74
2022/04/01 02:10:43;;;;;;;12.77;1.55;;;;;;;0.85;73.94;100133.22;5077737;28;20496;-74
2022/04/01 02:13:09;;;;;;;3.38;1.52;;;;;;;0.82;74.37;100133.69;5082044;28;20037;-74
2022/04/01 02:15:35;;;;;;;7.15;1.48;;;;;;;0.83;74.42;100124.41;5073544;28;20032;-74
2022/04/01 02:18:00;;;;;;;5.53;1.17;;;;;;;0.79;74.53;100143.19;5070904;28;20032;-74
2022/04/01 02:20:26;;;;;;;6.10;1.50;;;;;;;0.76;74.11;100134.66;5079069;28;20386;-74
2022/04/01 02:22:53;;;;;;;3.85;1.10;;;;;;;0.79;74.83;100136.91;5077996;28;20028;-74
2022/04/01 02:25:19;;;;;;;3.03;1.10;;;;;;;0.79;74.67;100135.00;5071555;28;20030;-74
2022/04/01 02:27:44;;;;;;;4.93;1.15;;;;;;;0.75;75.00;100139.25;5078763;28;20032;-74
2022/04/01 02:30:10;;;;;;;4.43;1.15;;;;;;;0.75;75.34;100127.50;5078780;28;20028;-74
2022/04/01 02:32:41;;;;;;;4.20;1.20;;;;;;;0.73;75.55;100135.97;5074130;28;20090;-74
2022/04/01 02:35:08;;;;;;;7.82;1.40;;;;;;;0.71;74.39;100132.63;5078829;28;20389;-74
2022/04/01 02:37:34;;;;;;;9.85;1.73;;;;;;;0.70;74.33;100135.59;5081606;28;20028;-74
2022/04/01 02:40:00;;;;;;;2.72;1.10;;;;;;;0.66;74.75;100138.78;5082649;28;20032;-74
2022/04/01 02:42:25;;;;;;;6.53;1.20;;;;;;;0.65;74.41;100128.94;5077184;28;20033;-74
2022/04/01 02:44:50;;;;;;;6.45;1.40;;;;;;;0.68;74.25;100135.84;5076414;28;20031;-74
2022/04/01 02:47:16;;;;;;;7.40;2.00;;;;;;;0.63;74.45;100141.19;5072152;28;20507;-74
2022/04/01 02:49:42;;;;;;;7.45;1.20;;;;;;;0.60;74.65;100141.66;5079999;28;20032;-74
2022/04/01 02:52:07;;;;;;;8.57;1.27;;;;;;;0.59;74.57;100134.53;5074364;28;20040;-75
2022/04/01 02:54:36;;;;;;;5.13;1.35;;;;;;;0.63;73.74;100135.72;5088481;28;20052;-75
2022/04/01 02:57:02;;;;;;;5.28;1.10;;;;;;;0.65;73.53;100131.69;5076367;28;20024;-75
2022/04/01 02:59:29;;;;;;;4.00;1.20;;;;;;;0.69;73.22;100128.47;5096703;28;20042;-75
2022/04/01 03:01:55;;;;;;;4.30;1.40;;;;;;;0.73;72.86;100137.88;5071701;28;20032;-75
2022/04/01 03:04:20;;;;;;;8.73;1.20;;;;;;;0.74;73.54;100142.25;5101099;28;20571;-75
2022/04/01 03:06:47;;;;;;;3.55;1.20;;;;;;;0.71;73.02;100135.34;5083111;28;20085;-74
2022/04/01 03:09:13;;;;;;;7.63;1.10;;;;;;;0.69;73.19;100128.47;5080423;28;20051;-75
2022/04/01 03:11:39;;;;;;;7.65;1.08;;;;;;;0.74;72.56;100131.31;5098174;28;20028;-74
2022/04/01 03:14:06;;;;;;;3.30;0.93;;;;;;;0.75;72.90;100132.97;5080073;28;20068;-75
2022/04/01 03:16:32;;;;;;;7.32;1.27;;;;;;;0.77;71.75;100133.56;5084507;28;20033;-74
2022/04/01 03:18:59;;;;;;;6.22;1.38;;;;;;;0.72;72.64;100131.53;5098153;28;20039;-74
2022/04/01 03:21:25;;;;;;;3.53;1.08;;;;;;;0.75;72.38;100132.97;5100827;28;20484;-74
2022/04/01 03:23:51;;;;;;;6.40;1.23;;;;;;;0.73;72.76;100132.41;5080021;28;20039;-74
2022/04/01 03:26:17;;;;;;;4.72;1.10;;;;;;;0.70;73.15;100130.13;5097842;28;20153;-74
2022/04/01 03:28:42;;;;;;;5.82;1.42;;;;;;;0.77;72.32;100130.84;5099470;28;20062;-75
2022/04/01 03:31:09;;;;;;;5.28;1.30;;;;;;;0.79;72.28;100117.78;5101814;28;20036;-73
2022/04/01 03:33:35;;;;;;;4.15;1.20;;;;;;;0.76;72.51;100127.28;5077532;28;20069;-74
2022/04/01 03:36:01;;;;;;;7.13;1.35;;;;;;;0.69;73.19;100129.28;5097713;28;20031;-74
2022/04/01 03:38:27;;;;;;;6.65;1.10;;;;;;;0.77;72.94;100128.94;5097525;28;20028;-74
2022/04/01 03:40:52;;;;;;;2.65;0.85;;;;;;;0.77;73.56;100125.38;5097703;28;20032;-74
2022/04/01 03:43:20;;;;;;;9.38;1.45;;;;;;;0.74;74.20;100126.69;5079679;28;20036;-74
2022/04/01 03:45:48;;;;;;;4.45;1.15;;;;;;;0.80;73.72;100127.63;5056878;28;20477;-74
2022/04/01 03:48:33;;;;;;;3.90;1.02;;;;;;;0.85;73.67;100123.09;5079300;28;20059;-75
2022/04/01 03:50:59;;;;;;;5.50;1.33;;;;;;;0.81;73.81;100127.41;5077495;28;20024;-75
2022/04/01 03:53:29;;;;;;;6.82;1.42;;;;;;;0.79;74.16;100123.25;5079092;28;20081;-75
2022/04/01 03:55:58;;;;;;;5.90;1.13;;;;;;;0.78;74.49;100135.22;5077136;28;20037;-75
2022/04/01 03:58:31;;;;;;;3.55;1.23;;;;;;;0.77;74.39;100128.09;5080124;28;20031;-75
2022/04/01 04:01:01;;;;;;;5.53;1.60;;;;;;;0.79;74.40;100134.16;5076072;28;20028;-75
2022/04/01 04:03:27;;;;;;;7.93;1.92;;;;;;;0.77;74.70;100126.19;5073233;28;20035;-75
2022/04/01 04:05:53;;;;;;;6.53;2.20;;;;;;;0.74;75.08;100128.59;5077087;28;20028;-75
2022/04/01 04:08:19;;;;;;;9.30;2.00;;;;;;;0.73;75.36;100124.19;5075558;28;20033;-75
2022/04/01 04:10:49;;;;;;;4.32;1.60;;;;;;;0.82;75.29;100128.22;5085715;28;20038;-75
2022/04/01 04:13:15;;;;;;;10.82;1.58;;;;;;;0.74;75.75;100125.84;5082246;28;20161;-75
2022/04/01 04:16:04;;;;;;;5.25;1.48;;;;;;;0.76;75.90;100123.72;5068658;28;20032;-75
2022/04/01 04:18:33;;;;;;;4.43;1.30;;;;;;;0.72;76.24;100117.06;5075422;28;20028;-75
2022/04/01 04:21:10;;;;;;;4.78;1.52;;;;;;;0.70;76.70;100124.66;5075937;28;20036;-75
2022/04/01 04:23:46;;;;;;;6.20;1.88;;;;;;;0.69;76.75;100126.56;5044290;28;20063;-74
2022/04/01 04:26:16;;;;;;;2.85;1.48;;;;;;;0.72;76.92;100117.88;5070477;28;20111;-75
2022/04/01 04:28:47;;;;;;;4.93;1.52;;;;;;;0.70;77.08;100120.03;5059344;28;20425;-75
2022/04/01 04:31:13;;;;;;;5.60;1.80;;;;;;;0.66;77.40;100125.13;5078500;28;20029;-75
2022/04/01 04:33:44;;;;;;;5.13;1.70;;;;;;;0.65;77.56;100123.47;5074860;28;20036;-75
2022/04/01 04:36:10;;;;;;;8.55;1.77;;;;;;;0.62;77.92;100126.69;5055793;28;20484;-75
2022/04/01 04:38:37;;;;;;;7.65;2.05;;;;;;;0.60;78.33;100137.03;5065045;28;20505;-75
2022/04/01 04:41:08;;;;;;;6.13;1.50;;;;;;;0.56;78.58;100137.75;5075048;28;20439;-75
2022/04/01 04:43:38;;;;;;;8.93;1.60;;;;;;;0.55;79.12;100134.16;5069812;28;20032;-75
2022/04/01 04:46:04;;;;;;;8.95;1.67;;;;;;;0.54;79.42;100135.25;5076320;28;20021;-75
2022/04/01 04:48:30;;;;;;;6.10;1.90;;;;;;;0.50;79.90;100142.22;5077087;28;20028;-75
2022/04/01 04:50:58;;;;;;;6.68;2.13;;;;;;;0.57;80.52;100148.44;5062714;28;20519;-72
2022/04/01 04:53:24;;;;;;;6.25;1.65;;;;;;;0.52;80.66;100148.31;5067084;28;20053;-74
2022/04/01 04:55:50;;;;;;;4.10;1.80;;;;;;;0.48;80.55;100147.13;5038093;28;20037;-75
2022/04/01 04:58:16;;;;;;;9.00;2.33;;;;;;;0.49;81.60;100156.16;5078659;28;20081;-75
2022/04/01 05:00:43;;;;;;;8.32;2.08;;;;;;;0.48;81.77;100163.53;5067499;28;20047;-75
2022/04/01 05:03:21;;;;;;;9.70;2.38;;;;;;;0.45;81.86;100161.25;5062879;28;20036;-75
2022/04/01 05:05:51;;;;;;;9.70;2.17;;;;;;;0.44;81.98;100156.84;5061690;28;20051;-75
2022/04/01 05:08:38;;;;;;;6.30;2.60;;;;;;;0.42;82.38;100162.56;5074565;28;20027;-75
2022/04/01 05:11:22;;;;;;;11.73;3.35;;;;;;;0.42;83.08;100153.53;5074840;28;20037;-75
2022/04/01 05:14:20;;;;;;;12.93;4.25;;;;;;;0.42;83.24;100161.75;5084814;28;20550;-75
2022/04/01 05:16:54;;;;;;;8.90;3.75;;;;;;;0.45;84.71;100155.78;5048120;28;20060;-75
2022/04/01 05:19:27;;;;;;;12.10;3.70;;;;;;;0.47;84.06;100163.75;5076453;28;20037;-75
2022/04/01 05:22:05;;;;;;;9.90;3.42;;;;;;;0.42;83.66;100159.00;5074832;28;20036;-75
2022/04/01 05:24:50;;;;;;;11.45;4.38;;;;;;;0.49;84.11;100167.06;5089018;28;20036;-75
2022/04/01 05:27:31;;;;;;;7.60;3.55;;;;;;;0.45;84.56;100169.47;5068504;28;20021;-76
2022/04/01 05:30:13;;;;;;;13.27;4.07;;;;;;;0.42;85.02;100168.03;5093309;28;20036;-75
2022/04/01 05:32:40;;;;;;;10.60;3.92;;;;;;;0.49;84.40;100173.38;5057239;28;20032;-75
2022/04/01 05:35:06;;;;;;;13.23;4.50;;;;;;;0.49;85.17;100172.53;5078831;28;20104;-75
2022/04/01 05:37:32;;;;;;;13.20;3.75;;;;;;;0.45;84.60;100180.38;5062048;28;20542;-75
2022/04/01 05:39:57;;;;;;;11.52;3.78;;;;;;;0.50;84.47;100187.84;5079876;28;20032;-75
2022/04/01 05:42:23;;;;;;;9.85;3.50;;;;;;;0.46;84.67;100190.25;5062857;28;20029;-75
2022/04/01 05:44:48;;;;;;;14.20;5.78;;;;;;;0.42;84.71;100189.06;5065072;28;20481;-75
2022/04/01 05:47:14;;;;;;;8.82;4.20;;;;;;;0.48;83.92;100182.66;5072877;28;20032;-75
2022/04/01 05:49:41;;;;;;;8.95;3.35;;;;;;;0.46;84.06;100189.41;5091428;28;20032;-75
2022/04/01 05:52:08;;;;;;;13.77;4.22;;;;;;;0.48;83.90;100190.84;5057697;28;20509;-75
2022/04/01 05:54:34;;;;;;;10.93;4.38;;;;;;;0.48;83.59;100188.13;5086469;28;20563;-75
2022/04/01 05:56:59;;;;;;;15.70;5.18;;;;;;;0.50;83.39;100198.78;5081550;28;20024;-75
2022/04/01 05:59:25;;;;;;;11.98;3.78;;;;;;;0.52;83.25;100193.94;5081605;28;20031;-75
2022/04/01 06:02:09;;;;;;;10.50;4.22;;;;;;;0.51;83.21;100197.75;5081326;28;20035;-75
2022/04/01 06:05:01;;;;;;;10.27;4.18;;;;;;;0.51;83.41;100195.84;5071837;28;20059;-75
2022/04/01 06:07:48;;;;;;;8.73;2.78;;;;;;;0.62;82.84;100195.00;5056146;28;20059;-75
2022/04/01 06:10:32;;;;;;;8.57;2.40;;;;;;;0.72;82.27;100197.16;5067909;28;20087;-75
2022/04/01 06:13:22;;;;;;;5.35;2.60;;;;;;;0.76;81.93;100197.53;5081103;28;20024;-75
2022/04/01 06:16:20;;;;;;;9.52;2.60;;;;;;;0.84;81.53;100202.63;5080178;28;20036;-74
2022/04/01 06:19:03;;;;;;;8.40;2.50;;;;;;;0.94;81.12;100202.03;5069514;28;20036;-75
2022/04/01 06:21:29;;;;;;;;;;;;;;;1.09;79.92;100210.59;5071135;28;20030;-75
2022/04/01 06:24:11;;;;;;;9.45;3.05;;;;;;;1.27;79.28;100217.81;5081003;28;19999;-72
2022/04/01 06:26:42;;;;;;;12.53;2.90;;;;;;;1.29;78.68;100208.31;5064337;28;20384;-72
2022/04/01 06:29:52;;;;;;;8.68;3.25;;;;;;;1.43;78.07;100225.28;5064726;28;20131;-72
2022/04/01 06:32:32;;;;;;;7.95;2.25;;;;;;;1.57;77.09;100234.06;4972001;28;20044;-72
2022/04/01 06:34:58;;;;;;;9.93;2.72;;;;;;;1.67;75.90;100231.56;4994593;28;20085;-72
2022/04/01 06:37:34;;;;;;;7.93;2.13;;;;;;;1.74;75.82;100234.16;5029186;28;20049;-72
2022/04/01 06:39:59;;;;;;;7.18;2.20;;;;;;;1.84;75.30;100241.72;5050781;28;20039;-72
2022/04/01 06:42:26;;;;;;;8.73;2.72;;;;;;;1.96;74.56;100234.31;5080487;28;20027;-72
2022/04/01 06:44:52;;;;;;;7.28;2.30;;;;;;;2.00;74.87;100239.03;5079386;28;20032;-72
2022/04/01 06:47:17;;;;;;;7.45;1.50;;;;;;;2.13;73.39;100250.81;5093354;28;20028;-72
2022/04/01 06:49:43;;;;;;;3.58;1.45;;;;;;;2.26;71.20;100263.34;5098776;28;20032;-72
2022/04/01 06:52:09;;;;;;;6.97;1.77;;;;;;;2.33;70.22;100242.97;5083305;28;20039;-71
2022/04/01 06:54:35;;;;;;;5.57;1.85;;;;;;;2.40;69.26;100246.38;5088273;28;20051;-72
2022/04/01 06:57:01;;;;;;;6.13;1.30;;;;;;;2.54;65.87;100244.16;5098408;28;20117;-72
2022/04/01 06:59:26;;;;;;;3.33;1.30;;;;;;;2.61;65.69;100246.75;5098564;28;20024;-72
2022/04/01 07:01:52;;;;;;;4.90;1.40;;;;;;;2.69;64.89;100249.06;5083982;28;20035;-72
2022/04/01 07:04:17;;;;;;;4.35;1.30;;;;;;;2.72;65.64;100240.34;5083184;28;20032;-72
2022/04/01 07:06:43;;;;;;;6.88;1.85;;;;;;;2.78;64.95;100253.06;5098210;28;20028;-72
2022/04/01 07:09:08;;;;;;;9.80;1.48;;;;;;;2.87;63.59;100248.84;5080084;28;20089;-72
2022/04/01 07:11:34;;;;;;;7.75;1.98;;;;;;;2.96;63.73;100254.75;5098135;28;20028;-73
2022/04/01 07:14:00;;;;;;;6.50;1.88;;;;;;;3.00;63.21;100257.81;5098323;28;20027;-71
2022/04/01 07:16:25;;;;;;;3.08;1.13;;;;;;;3.11;62.58;100260.44;5084767;28;20037;-72
2022/04/01 07:18:51;;;;;;;3.03;1.73;;;;;;;3.16;62.50;100273.44;5098137;28;20043;-72
2022/04/01 07:21:17;;;;;;;5.45;1.95;;;;;;;3.23;62.35;100263.13;5111679;28;20080;-72
2022/04/01 07:23:42;;;;;;;4.95;1.50;;;;;;;3.33;60.60;100260.50;5079821;28;20024;-72
2022/04/01 07:26:09;;;;;;;4.55;1.52;;;;;;;3.40;61.50;100256.75;5099267;28;20028;-73
2022/04/01 07:28:34;;;;;;;3.80;1.20;;;;;;;3.45;61.50;100260.38;5102044;28;20043;-72
2022/04/01 07:32:29;;;;;;;7.30;1.20;;;;;;;3.54;60.09;100253.41;5099960;28;20032;-72
2022/04/01 07:33:48;;;;;;;9.57;1.95;;;;;;;3.65;60.59;100261.75;5097758;28;20028;-72
2022/04/01 07:36:13;;;;;;;6.90;1.40;;;;;;;3.72;58.98;100255.00;5079863;28;20039;-72
2022/04/01 07:38:39;;;;;;;4.90;1.65;;;;;;;3.71;59.41;100269.81;5097639;28;20051;-72
2022/04/01 07:41:05;;;;;;;4.68;1.50;;;;;;;3.81;58.82;100269.94;5079594;28;20508;-72
2022/04/01 07:43:31;;;;;;;6.38;1.38;;;;;;;3.85;58.83;100277.69;5079577;28;20043;-72
2022/04/01 07:45:57;;;;;;;5.13;1.33;;;;;;;3.89;58.84;100265.09;5054268;28;20028;-72
2022/04/01 07:48:23;;;;;;;7.70;1.25;;;;;;;3.92;57.59;100286.56;5097471;28;20054;-71
2022/04/01 07:50:48;;;;;;;3.45;1.20;;;;;;;3.96;56.49;100263.00;5097293;28;20430;-72
2022/04/01 07:53:16;;;;;;;8.90;1.48;;;;;;;4.00;55.83;100266.88;5097177;28;20028;-72
2022/04/01 07:55:43;;;;;;;6.03;1.27;;;;;;;4.00;55.94;100264.97;5087305;28;20046;-72
2022/04/01 07:58:09;;;;;;;6.07;1.05;;;;;;;4.04;55.48;100262.56;5101707;28;20032;-72
2022/04/01 08:00:35;;;;;;;10.57;1.58;;;;;;;4.12;55.85;100259.31;5117008;28;20062;-72
2022/04/01 08:03:01;;;;;;;5.40;1.10;;;;;;;4.12;54.29;100270.31;5097260;28;20438;-72
2022/04/01 08:05:26;;;;;;;6.80;1.27;;;;;;;4.20;54.93;100271.78;5097410;28;20400;-72
2022/04/01 08:07:52;;;;;;;12.25;1.35;;;;;;;4.29;56.40;100266.66;5097282;28;20077;-72
2022/04/01 08:10:17;;;;;;;4.63;1.33;;;;;;;4.37;55.48;100282.69;5096702;28;20027;-72
2022/04/01 08:12:43;;;;;;;5.78;1.60;;;;;;;4.37;55.08;100271.69;5097119;28;20412;-73
2022/04/01 08:15:09;;;;;;;5.45;2.30;;;;;;;4.47;54.86;100271.81;5093976;28;20032;-72
2022/04/01 08:17:35;;;;;;;6.88;2.05;;;;;;;4.56;55.29;100252.91;5086892;28;20036;-73
2022/04/01 08:20:01;;;;;;;4.15;0.90;;;;;;;4.67;56.17;100274.75;5109783;28;20500;-72
2022/04/01 08:22:26;;;;;;;6.13;1.17;;;;;;;4.72;53.61;100265.72;5101038;28;20046;-72
2022/04/01 08:24:52;;;;;;;7.97;1.00;;;;;;;4.74;52.26;100270.97;5080994;28;20093;-72
2022/04/01 08:27:17;;;;;;;6.68;1.10;;;;;;;4.76;52.12;100277.03;5058477;28;20021;-73
2022/04/01 08:29:44;;;;;;;3.80;1.13;;;;;;;4.84;53.58;100263.59;5099213;28;20046;-73
2022/04/01 08:32:10;;;;;;;6.28;1.23;;;;;;;4.95;53.50;100260.94;5095320;28;20077;-72
2022/04/01 08:34:37;;;;;;;6.82;1.23;;;;;;;4.90;53.28;100270.84;5093372;28;20036;-73
2022/04/01 08:37:03;;;;;;;7.90;1.30;;;;;;;5.00;54.01;100270.09;5078900;28;20024;-73
2022/04/01 08:39:28;;;;;;;4.18;1.50;;;;;;;5.11;53.76;100288.34;5096247;28;20077;-73
2022/04/01 08:41:54;;;;;;;4.55;1.48;;;;;;;5.05;52.89;100278.38;5078582;28;20028;-73
2022/04/01 08:44:19;;;;;;;6.88;1.50;;;;;;;5.09;52.98;100287.75;5096549;28;20028;-73
2022/04/01 08:46:45;;;;;;;8.40;1.50;;;;;;;5.04;54.23;100289.63;5089505;28;20027;-73
2022/04/01 08:49:11;;;;;;;5.45;1.30;;;;;;;5.09;54.55;100293.25;5111813;28;20084;-73
2022/04/01 08:51:36;;;;;;;7.30;1.90;;;;;;;5.14;52.71;100286.97;5081084;28;20020;-72
2022/04/01 08:54:03;;;;;;;6.95;1.40;;;;;;;5.11;52.59;100290.25;5093670;28;20044;-73
2022/04/01 08:56:28;;;;;;;5.40;1.45;;;;;;;5.08;52.13;100291.63;5096088;28;20111;-71
2022/04/01 08:58:54;;;;;;;8.98;1.75;;;;;;;5.04;53.14;100295.16;5065283;28;20039;-73
2022/04/01 09:01:20;;;;;;;8.00;1.50;;;;;;;4.97;52.79;100311.88;5087245;28;20395;-72
2022/04/01 09:03:45;;;;;;;3.03;1.30;;;;;;;4.88;52.62;100280.44;5077947;28;20439;-71
2022/04/01 09:06:11;;;;;;;8.52;1.95;;;;;;;4.95;54.02;100292.06;5078349;28;20024;-72
2022/04/01 09:08:38;;;;;;;5.88;1.45;;;;;;;4.96;53.38;100313.00;5100332;28;20032;-72
2022/04/01 09:11:18;;;;;;;6.07;1.60;;;;;;;5.05;54.39;100308.66;5105344;28;20028;-72
2022/04/01 09:13:44;;;;;;;5.80;2.20;;;;;;;4.95;53.63;100311.31;5096087;28;20028;-72
2022/04/01 09:16:22;;;;;;;5.15;1.60;;;;;;;4.89;53.56;100301.38;5090629;28;20033;-72
2022/04/01 09:18:48;;;;;;;8.75;2.05;;;;;;;4.96;54.12;100302.00;5098524;28;20039;-72
2022/04/01 09:21:14;;;;;;;8.02;1.70;;;;;;;5.01;55.25;100290.16;5078087;28;20043;-72
2022/04/01 09:23:44;;;;;;;6.30;1.65;;;;;;;5.08;54.15;100297.13;5095906;28;20548;-72
2022/04/01 09:26:10;;;;;;;3.97;1.63;;;;;;;5.13;54.71;100293.59;5095956;28;20125;-73
2022/04/01 09:28:39;;;;;;;9.30;1.73;;;;;;;5.26;54.48;100295.03;5096204;28;20560;-72
2022/04/01 09:31:14;;;;;;;8.85;2.35;;;;;;;5.41;54.48;100313.63;5096040;28;20550;-73
2022/04/01 09:33:42;;;;;;;10.70;1.92;;;;;;;5.52;54.62;100302.41;5073979;28;20491;-72
2022/04/01 09:36:09;;;;;;;6.43;1.50;;;;;;;5.68;54.71;100308.00;5109688;28;20507;-72
2022/04/01 09:38:36;;;;;;;6.57;1.90;;;;;;;5.80;54.11;100301.19;5095945;28;20028;-72
2022/04/01 09:41:03;;;;;;;15.10;2.85;;;;;;;5.94;54.26;100306.25;5078119;28;20040;-73
2022/04/01 09:43:29;;;;;;;7.85;1.85;;;;;;;5.97;52.52;100306.53;5091487;28;20036;-72
2022/04/01 09:45:54;;;;;;;6.13;1.58;;;;;;;5.93;51.20;100308.16;5079664;28;20048;-72
2022/04/01 09:48:20;;;;;;;6.95;1.42;;;;;;;5.87;51.07;100324.91;5077602;28;20024;-72
2022/04/01 09:50:56;;;;;;;5.95;1.88;;;;;;;5.87;50.87;100317.47;5077797;28;20031;-73
2022/04/01 09:53:21;;;;;;;3.88;1.60;;;;;;;5.89;51.09;100315.28;5080259;28;20035;-73
2022/04/01 09:55:49;;;;;;;12.57;1.80;;;;;;;5.97;51.89;100323.06;5115952;28;20043;-77
2022/04/01 09:58:15;;;;;;;9.27;2.03;;;;;;;6.01;51.56;100313.16;5081544;28;20484;-76
2022/04/01 10:00:41;;;;;;;7.10;1.90;;;;;;;6.04;50.90;100315.41;5097885;28;20027;-76
2022/04/01 10:03:07;;;;;;;7.82;1.90;;;;;;;6.13;51.18;100309.34;5069762;28;20032;-77
2022/04/01 10:05:34;;;;;;;8.05;1.88;;;;;;;6.11;50.73;100311.56;5060953;28;20028;-76
2022/04/01 10:08:01;;;;;;;5.28;1.52;;;;;;;6.12;49.84;100325.06;5072799;28;20023;-76
2022/04/01 10:10:27;;;;;;;5.85;1.63;;;;;;;6.05;49.93;100321.75;5099129;28;20028;-76
2022/04/01 10:12:53;;;;;;;7.43;1.90;;;;;;;6.15;50.43;100323.69;5080470;28;20039;-77
2022/04/01 10:15:19;;;;;;;5.00;1.23;;;;;;;6.23;50.10;100331.47;5060158;28;20058;-75
2022/04/01 10:17:44;;;;;;;12.13;1.65;;;;;;;6.25;49.67;100324.56;5062340;28;20544;-75
2022/04/01 10:20:12;;;;;;;6.32;1.98;;;;;;;6.26;50.30;100309.69;5097394;28;20472;-76
2022/04/01 10:22:39;;;;;;;8.75;2.22;;;;;;;6.34;49.75;100319.38;5064669;28;20059;-76
2022/04/01 10:25:45;;;;;;;7.40;1.70;;;;;;;6.41;49.26;100308.91;5081132;28;20028;-76
2022/04/01 10:28:10;;;;;;;7.22;1.27;;;;;;;6.45;48.71;100307.25;5016744;28;20518;-77
2022/04/01 10:30:36;;;;;;;5.78;1.45;;;;;;;6.51;49.52;100310.03;5000313;28;20201;-77
2022/04/01 10:33:06;;;;;;;5.72;1.90;;;;;;;6.65;48.64;100314.75;5054323;28;20036;-77
2022/04/01 10:35:37;;;;;;;3.00;1.20;;;;;;;6.65;48.40;100305.66;5064446;28;20028;-76
2022/04/01 10:38:05;;;;;;;5.00;1.25;;;;;;;6.66;48.26;100310.09;5084660;28;20051;-76
2022/04/01 10:40:49;;;;;;;6.32;1.42;;;;;;;6.71;48.84;100304.56;5083096;28;20042;-76
2022/04/01 10:43:22;;;;;;;6.07;1.85;;;;;;;6.81;49.80;100312.03;5086778;28;20028;-77
2022/04/01 10:46:07;;;;;;;7.60;1.90;;;;;;;6.91;49.68;100321.16;5073910;28;20639;-77
2022/04/01 10:51:37;;;;;;;9.05;2.00;;;;;;;6.68;51.41;100338.22;5084274;28;20032;-76
2022/04/01 10:54:06;;;;;;;6.10;1.67;;;;;;;6.51;51.64;100349.50;5067309;28;20036;-76
2022/04/01 10:56:36;;;;;;;3.55;1.58;;;;;;;6.31;51.17;100339.22;5089442;28;20044;-76
2022/04/01 10:59:15;;;;;;;5.68;1.95;;;;;;;6.36;51.63;100333.72;5082601;28;20396;-76
2022/04/01 11:01:52;;;;;;;6.13;2.00;;;;;;;6.45;52.14;100323.00;5098822;28;20060;-76
2022/04/01 11:04:18;;;;;;;6.20;2.15;;;;;;;6.56;51.58;100321.09;5101140;28;20028;-76
2022/04/01 11:06:56;;;;;;;7.40;2.03;;;;;;;6.68;50.53;100310.63;5084018;28;20107;-77
2022/04/01 11:10:01;;;;;;;6.45;1.60;;;;;;;6.72;48.68;100314.50;5088879;28;20468;-76
2022/04/01 11:12:38;;;;;;;4.10;1.30;;;;;;;6.70;48.51;100314.78;4992754;28;20109;-77
2022/04/01 11:15:07;;;;;;;8.13;1.60;;;;;;;6.76;47.69;100326.66;4981768;28;20055;-76
2022/04/01 11:17:35;;;;;;;5.90;1.67;;;;;;;6.77;47.44;100317.28;4996054;28;20082;-76
2022/04/01 11:20:12;;;;;;;3.15;1.40;;;;;;;6.85;48.88;100300.19;4995882;28;20038;-77
2022/04/01 11:22:53;;;;;;;12.40;1.80;;;;;;;6.92;49.93;100305.44;4993839;28;20502;-77
2022/04/01 11:25:24;;;;;;;6.25;1.90;;;;;;;7.04;49.87;100311.50;4995329;28;20431;-76
2022/04/01 11:27:58;;;;;;;6.80;1.60;;;;;;;7.08;49.39;100304.34;4984601;28;20030;-76
2022/04/01 11:30:25;;;;;;;5.28;1.42;;;;;;;7.13;48.87;100311.78;4997901;28;20049;-76
2022/04/01 11:33:01;;;;;;;3.90;1.38;;;;;;;7.14;48.56;100314.28;4986961;28;20061;-75
2022/04/01 11:35:31;;;;;;;6.95;1.80;;;;;;;7.22;49.27;100307.38;4980386;28;20037;-76
2022/04/01 11:37:56;;;;;;;7.57;2.35;;;;;;;7.20;49.13;100317.88;4995839;28;20041;-76
2022/04/01 11:40:25;;;;;;;8.48;1.95;;;;;;;7.20;48.87;100333.59;4979215;28;20026;-76
2022/04/01 11:42:56;;;;;;;7.85;1.63;;;;;;;6.98;47.98;100320.88;5040758;28;20063;-78
2022/04/01 11:45:22;;;;;;;6.13;1.83;;;;;;;6.92;47.32;100322.81;5078055;28;20032;-77
2022/04/01 11:47:48;;;;;;;5.82;2.03;;;;;;;6.70;48.32;100325.00;5068220;28;20043;-77